sensor_id;sensor_type;location;lat;lon;timestamp;P1;durP1;ratioP1;P2;durP2;ratioP2
17702;SDS011;8970;48.104;-1.680;2022-07-22T00:00:18;4.92;;;2.55;;
17702;SDS011;8970;48.104;-1.680;2022-07-22T00:00:55;3.72;;;2.70;;
17702;SDS011;8970;48.104;-1.680;2022-07-22T00:01:32;4.83;;;2.58;;
17702;SDS011;8970;48.104;-1.680;2022-07-22T00:02:08;3.90;;;2.30;;
17702;SDS011;8970;48.104;-1.680;2022-07-22T00:02:45;6.03;;;2.60;;
17702;SDS011;8970;48.104;-1.680;2022-07-22T00:03:27;4.95;;;2.55;;
17702;SDS011;8970;48.104;-1.680;2022-07-22T00:04:04;3.75;;;2.60;;
17702;SDS011;8970;48.104;-1.680;2022-07-22T00:04:41;4.75;;;2.17;;
17702;SDS011;8970;48.104;-1.680;2022-07-22T00:05:17;5.22;;;2.60;;
17702;SDS011;8970;48.104;-1.680;2022-07-22T00:05:54;8.40;;;2.60;;
17702;SDS011;8970;48.104;-1.680;2022-07-22T00:06:36;4.83;;;2.65;;
17702;SDS011;8970;48.104;-1.680;2022-07-22T00:07:13;5.25;;;2.75;;
17702;SDS011;8970;48.104;-1.680;2022-07-22T00:07:50;3.22;;;2.17;;
17702;SDS011;8970;48.104;-1.680;2022-07-22T00:08:26;5.60;;;2.50;;
17702;SDS011;8970;48.104;-1.680;2022-07-22T00:09:03;4.62;;;2.65;;
17702;SDS011;8970;48.104;-1.680;2022-07-22T00:09:40;3.35;;;2.10;;
17702;SDS011;8970;48.104;-1.680;2022-07-22T00:10:17;3.20;;;2.67;;
17702;SDS011;8970;48.104;-1.680;2022-07-22T00:10:53;8.28;;;2.80;;
17702;SDS011;8970;48.104;-1.680;2022-07-22T00:11:30;3.60;;;2.60;;
17702;SDS011;8970;48.104;-1.680;2022-07-22T00:12:07;5.17;;;3.05;;
17702;SDS011;8970;48.104;-1.680;2022-07-22T00:12:49;6.35;;;2.65;;
17702;SDS011;8970;48.104;-1.680;2022-07-22T00:13:26;3.37;;;2.52;;
17702;SDS011;8970;48.104;-1.680;2022-07-22T00:14:03;3.60;;;2.55;;
17702;SDS011;8970;48.104;-1.680;2022-07-22T00:14:39;4.83;;;2.70;;
17702;SDS011;8970;48.104;-1.680;2022-07-22T00:15:16;4.95;;;2.98;;
17702;SDS011;8970;48.104;-1.680;2022-07-22T00:16:36;5.97;;;2.33;;
17702;SDS011;8970;48.104;-1.680;2022-07-22T00:17:13;4.17;;;2.55;;
17702;SDS011;8970;48.104;-1.680;2022-07-22T00:17:49;5.10;;;2.45;;
17702;SDS011;8970;48.104;-1.680;2022-07-22T00:18:26;5.42;;;2.58;;
17702;SDS011;8970;48.104;-1.680;2022-07-22T00:19:03;3.45;;;2.65;;
17702;SDS011;8970;48.104;-1.680;2022-07-22T00:19:40;3.83;;;2.30;;
17702;SDS011;8970;48.104;-1.680;2022-07-22T00:20:16;4.08;;;2.90;;
17702;SDS011;8970;48.104;-1.680;2022-07-22T00:20:59;4.42;;;2.72;;
17702;SDS011;8970;48.104;-1.680;2022-07-22T00:21:35;4.10;;;2.50;;
17702;SDS011;8970;48.104;-1.680;2022-07-22T00:22:12;6.72;;;3.00;;
17702;SDS011;8970;48.104;-1.680;2022-07-22T00:22:48;3.95;;;2.40;;
17702;SDS011;8970;48.104;-1.680;2022-07-22T00:23:26;4.53;;;2.40;;
17702;SDS011;8970;48.104;-1.680;2022-07-22T00:24:08;4.72;;;2.72;;
17702;SDS011;8970;48.104;-1.680;2022-07-22T00:24:44;6.40;;;3.30;;
17702;SDS011;8970;48.104;-1.680;2022-07-22T00:25:21;3.35;;;2.27;;
17702;SDS011;8970;48.104;-1.680;2022-07-22T00:25:58;4.17;;;2.22;;
17702;SDS011;8970;48.104;-1.680;2022-07-22T00:26:34;3.95;;;2.65;;
17702;SDS011;8970;48.104;-1.680;2022-07-22T00:27:11;3.15;;;2.35;;
17702;SDS011;8970;48.104;-1.680;2022-07-22T00:27:48;5.30;;;2.80;;
17702;SDS011;8970;48.104;-1.680;2022-07-22T00:29:08;3.47;;;2.33;;
17702;SDS011;8970;48.104;-1.680;2022-07-22T00:29:45;5.72;;;2.92;;
17702;SDS011;8970;48.104;-1.680;2022-07-22T00:30:21;4.17;;;2.77;;
17702;SDS011;8970;48.104;-1.680;2022-07-22T00:30:58;3.45;;;2.60;;
17702;SDS011;8970;48.104;-1.680;2022-07-22T00:31:35;3.52;;;2.30;;
17702;SDS011;8970;48.104;-1.680;2022-07-22T00:32:11;3.22;;;2.20;;
17702;SDS011;8970;48.104;-1.680;2022-07-22T00:32:54;3.87;;;2.45;;
17702;SDS011;8970;48.104;-1.680;2022-07-22T00:33:30;6.47;;;2.70;;
17702;SDS011;8970;48.104;-1.680;2022-07-22T00:34:07;7.03;;;2.52;;
17702;SDS011;8970;48.104;-1.680;2022-07-22T00:34:44;4.25;;;2.50;;
17702;SDS011;8970;48.104;-1.680;2022-07-22T00:35:26;4.53;;;3.05;;
17702;SDS011;8970;48.104;-1.680;2022-07-22T00:36:05;7.35;;;3.02;;
17702;SDS011;8970;48.104;-1.680;2022-07-22T00:36:42;4.42;;;3.00;;
17702;SDS011;8970;48.104;-1.680;2022-07-22T00:37:19;4.65;;;2.75;;
17702;SDS011;8970;48.104;-1.680;2022-07-22T00:37:55;3.12;;;2.72;;
17702;SDS011;8970;48.104;-1.680;2022-07-22T00:38:32;3.52;;;2.62;;
17702;SDS011;8970;48.104;-1.680;2022-07-22T00:39:09;3.58;;;2.58;;
17702;SDS011;8970;48.104;-1.680;2022-07-22T00:40:26;5.03;;;2.45;;
17702;SDS011;8970;48.104;-1.680;2022-07-22T00:41:03;3.98;;;2.98;;
17702;SDS011;8970;48.104;-1.680;2022-07-22T00:41:40;6.05;;;2.90;;
17702;SDS011;8970;48.104;-1.680;2022-07-22T00:42:16;6.33;;;2.67;;
17702;SDS011;8970;48.104;-1.680;2022-07-22T00:42:53;4.53;;;2.55;;
17702;SDS011;8970;48.104;-1.680;2022-07-22T00:43:48;4.90;;;2.42;;
17702;SDS011;8970;48.104;-1.680;2022-07-22T00:44:28;6.00;;;2.45;;
17702;SDS011;8970;48.104;-1.680;2022-07-22T00:45:06;3.67;;;2.35;;
17702;SDS011;8970;48.104;-1.680;2022-07-22T00:45:44;6.05;;;3.08;;
17702;SDS011;8970;48.104;-1.680;2022-07-22T00:47:01;4.65;;;2.98;;
17702;SDS011;8970;48.104;-1.680;2022-07-22T00:47:38;5.92;;;2.58;;
17702;SDS011;8970;48.104;-1.680;2022-07-22T00:48:15;3.33;;;2.45;;
17702;SDS011;8970;48.104;-1.680;2022-07-22T00:49:32;4.28;;;2.62;;
17702;SDS011;8970;48.104;-1.680;2022-07-22T00:50:09;2.75;;;2.35;;
17702;SDS011;8970;48.104;-1.680;2022-07-22T00:50:48;2.60;;;2.40;;
17702;SDS011;8970;48.104;-1.680;2022-07-22T00:51:31;4.08;;;2.70;;
17702;SDS011;8970;48.104;-1.680;2022-07-22T00:52:07;3.90;;;2.60;;
17702;SDS011;8970;48.104;-1.680;2022-07-22T00:52:45;5.20;;;3.00;;
17702;SDS011;8970;48.104;-1.680;2022-07-22T00:53:22;6.17;;;2.98;;
17702;SDS011;8970;48.104;-1.680;2022-07-22T00:53:59;4.33;;;2.50;;
17702;SDS011;8970;48.104;-1.680;2022-07-22T00:54:36;6.22;;;2.83;;
17702;SDS011;8970;48.104;-1.680;2022-07-22T00:55:13;4.12;;;2.50;;
17702;SDS011;8970;48.104;-1.680;2022-07-22T00:55:50;4.83;;;2.72;;
17702;SDS011;8970;48.104;-1.680;2022-07-22T00:56:38;6.15;;;2.95;;
17702;SDS011;8970;48.104;-1.680;2022-07-22T00:57:15;4.55;;;2.77;;
17702;SDS011;8970;48.104;-1.680;2022-07-22T00:57:52;3.27;;;2.15;;
17702;SDS011;8970;48.104;-1.680;2022-07-22T00:58:31;4.53;;;2.87;;
17702;SDS011;8970;48.104;-1.680;2022-07-22T00:59:13;5.47;;;2.62;;
17702;SDS011;8970;48.104;-1.680;2022-07-22T00:59:50;5.90;;;2.47;;
17702;SDS011;8970;48.104;-1.680;2022-07-22T01:00:27;4.08;;;2.72;;
17702;SDS011;8970;48.104;-1.680;2022-07-22T01:01:04;3.52;;;2.62;;
17702;SDS011;8970;48.104;-1.680;2022-07-22T01:01:44;4.95;;;2.92;;
17702;SDS011;8970;48.104;-1.680;2022-07-22T01:02:20;5.25;;;2.58;;
17702;SDS011;8970;48.104;-1.680;2022-07-22T01:02:58;3.92;;;2.15;;
17702;SDS011;8970;48.104;-1.680;2022-07-22T01:03:35;3.80;;;2.55;;
17702;SDS011;8970;48.104;-1.680;2022-07-22T01:04:12;4.25;;;2.58;;
17702;SDS011;8970;48.104;-1.680;2022-07-22T01:04:48;4.87;;;2.95;;
17702;SDS011;8970;48.104;-1.680;2022-07-22T01:05:25;5.80;;;3.15;;
17702;SDS011;8970;48.104;-1.680;2022-07-22T01:06:02;5.50;;;2.70;;
17702;SDS011;8970;48.104;-1.680;2022-07-22T01:06:38;3.83;;;2.45;;
17702;SDS011;8970;48.104;-1.680;2022-07-22T01:08:05;3.90;;;2.60;;
17702;SDS011;8970;48.104;-1.680;2022-07-22T01:08:42;5.17;;;3.02;;
17702;SDS011;8970;48.104;-1.680;2022-07-22T01:09:19;3.55;;;2.70;;
17702;SDS011;8970;48.104;-1.680;2022-07-22T01:09:55;4.35;;;2.85;;
17702;SDS011;8970;48.104;-1.680;2022-07-22T01:10:32;3.05;;;2.60;;
17702;SDS011;8970;48.104;-1.680;2022-07-22T01:11:52;5.62;;;2.70;;
17702;SDS011;8970;48.104;-1.680;2022-07-22T01:12:29;5.65;;;3.40;;
17702;SDS011;8970;48.104;-1.680;2022-07-22T01:13:06;5.87;;;3.40;;
17702;SDS011;8970;48.104;-1.680;2022-07-22T01:13:43;3.80;;;3.10;;
17702;SDS011;8970;48.104;-1.680;2022-07-22T01:14:20;4.42;;;2.95;;
17702;SDS011;8970;48.104;-1.680;2022-07-22T01:15:03;3.30;;;2.80;;
17702;SDS011;8970;48.104;-1.680;2022-07-22T01:15:42;5.37;;;2.75;;
17702;SDS011;8970;48.104;-1.680;2022-07-22T01:16:24;5.37;;;2.90;;
17702;SDS011;8970;48.104;-1.680;2022-07-22T01:17:01;4.12;;;3.00;;
17702;SDS011;8970;48.104;-1.680;2022-07-22T01:17:37;5.65;;;2.85;;
17702;SDS011;8970;48.104;-1.680;2022-07-22T01:18:14;5.25;;;2.80;;
17702;SDS011;8970;48.104;-1.680;2022-07-22T01:18:53;5.35;;;2.85;;
17702;SDS011;8970;48.104;-1.680;2022-07-22T01:19:30;3.10;;;2.83;;
17702;SDS011;8970;48.104;-1.680;2022-07-22T01:20:07;6.47;;;3.10;;
17702;SDS011;8970;48.104;-1.680;2022-07-22T01:20:45;3.65;;;2.67;;
17702;SDS011;8970;48.104;-1.680;2022-07-22T01:21:28;3.22;;;2.60;;
17702;SDS011;8970;48.104;-1.680;2022-07-22T01:22:05;3.75;;;2.90;;
17702;SDS011;8970;48.104;-1.680;2022-07-22T01:22:42;4.92;;;2.75;;
17702;SDS011;8970;48.104;-1.680;2022-07-22T01:23:19;5.72;;;2.98;;
17702;SDS011;8970;48.104;-1.680;2022-07-22T01:23:56;6.12;;;3.20;;
17702;SDS011;8970;48.104;-1.680;2022-07-22T01:24:33;4.92;;;2.77;;
17702;SDS011;8970;48.104;-1.680;2022-07-22T01:25:51;6.85;;;2.80;;
17702;SDS011;8970;48.104;-1.680;2022-07-22T01:26:27;7.70;;;2.92;;
17702;SDS011;8970;48.104;-1.680;2022-07-22T01:27:04;4.37;;;2.90;;
17702;SDS011;8970;48.104;-1.680;2022-07-22T01:27:41;4.10;;;2.70;;
17702;SDS011;8970;48.104;-1.680;2022-07-22T01:28:18;6.12;;;2.70;;
17702;SDS011;8970;48.104;-1.680;2022-07-22T01:28:55;3.62;;;3.02;;
17702;SDS011;8970;48.104;-1.680;2022-07-22T01:29:32;8.70;;;3.62;;
17702;SDS011;8970;48.104;-1.680;2022-07-22T01:30:09;6.12;;;3.12;;
17702;SDS011;8970;48.104;-1.680;2022-07-22T01:30:47;5.72;;;3.12;;
17702;SDS011;8970;48.104;-1.680;2022-07-22T01:31:24;7.42;;;3.72;;
17702;SDS011;8970;48.104;-1.680;2022-07-22T01:32:02;3.77;;;2.60;;
17702;SDS011;8970;48.104;-1.680;2022-07-22T01:32:39;6.67;;;3.12;;
17702;SDS011;8970;48.104;-1.680;2022-07-22T01:33:16;3.72;;;3.30;;
17702;SDS011;8970;48.104;-1.680;2022-07-22T01:33:53;5.80;;;3.25;;
17702;SDS011;8970;48.104;-1.680;2022-07-22T01:34:31;5.05;;;3.55;;
17702;SDS011;8970;48.104;-1.680;2022-07-22T01:35:08;4.83;;;3.00;;
17702;SDS011;8970;48.104;-1.680;2022-07-22T01:35:44;4.78;;;3.22;;
17702;SDS011;8970;48.104;-1.680;2022-07-22T01:37:05;5.47;;;3.10;;
17702;SDS011;8970;48.104;-1.680;2022-07-22T01:37:42;4.22;;;3.02;;
17702;SDS011;8970;48.104;-1.680;2022-07-22T01:38:19;5.10;;;3.17;;
17702;SDS011;8970;48.104;-1.680;2022-07-22T01:38:56;4.83;;;3.20;;
17702;SDS011;8970;48.104;-1.680;2022-07-22T01:39:39;5.87;;;2.98;;
17702;SDS011;8970;48.104;-1.680;2022-07-22T01:40:17;5.22;;;2.87;;
17702;SDS011;8970;48.104;-1.680;2022-07-22T01:40:54;4.47;;;2.92;;
17702;SDS011;8970;48.104;-1.680;2022-07-22T01:41:31;5.60;;;3.30;;
17702;SDS011;8970;48.104;-1.680;2022-07-22T01:42:13;7.05;;;3.15;;
17702;SDS011;8970;48.104;-1.680;2022-07-22T01:42:50;4.33;;;3.02;;
17702;SDS011;8970;48.104;-1.680;2022-07-22T01:43:26;6.60;;;3.83;;
17702;SDS011;8970;48.104;-1.680;2022-07-22T01:44:03;4.10;;;3.60;;
17702;SDS011;8970;48.104;-1.680;2022-07-22T01:44:40;5.28;;;3.30;;
17702;SDS011;8970;48.104;-1.680;2022-07-22T01:45:16;4.40;;;3.12;;
17702;SDS011;8970;48.104;-1.680;2022-07-22T01:45:53;6.12;;;3.37;;
17702;SDS011;8970;48.104;-1.680;2022-07-22T01:47:11;6.37;;;3.52;;
17702;SDS011;8970;48.104;-1.680;2022-07-22T01:47:48;6.58;;;3.45;;
17702;SDS011;8970;48.104;-1.680;2022-07-22T01:48:24;7.47;;;3.50;;
17702;SDS011;8970;48.104;-1.680;2022-07-22T01:49:01;6.28;;;3.33;;
17702;SDS011;8970;48.104;-1.680;2022-07-22T01:49:43;3.80;;;3.08;;
17702;SDS011;8970;48.104;-1.680;2022-07-22T01:50:20;6.55;;;3.67;;
17702;SDS011;8970;48.104;-1.680;2022-07-22T01:50:57;5.58;;;3.50;;
17702;SDS011;8970;48.104;-1.680;2022-07-22T01:51:34;6.55;;;3.47;;
17702;SDS011;8970;48.104;-1.680;2022-07-22T01:52:10;4.92;;;3.33;;
17702;SDS011;8970;48.104;-1.680;2022-07-22T01:52:47;6.83;;;3.65;;
17702;SDS011;8970;48.104;-1.680;2022-07-22T01:53:24;6.00;;;3.22;;
17702;SDS011;8970;48.104;-1.680;2022-07-22T01:54:00;5.55;;;3.55;;
17702;SDS011;8970;48.104;-1.680;2022-07-22T01:54:37;5.75;;;3.77;;
17702;SDS011;8970;48.104;-1.680;2022-07-22T01:55:13;5.30;;;3.25;;
17702;SDS011;8970;48.104;-1.680;2022-07-22T01:55:50;5.80;;;3.60;;
17702;SDS011;8970;48.104;-1.680;2022-07-22T01:56:27;5.65;;;3.15;;
17702;SDS011;8970;48.104;-1.680;2022-07-22T01:57:04;5.92;;;3.35;;
17702;SDS011;8970;48.104;-1.680;2022-07-22T01:57:40;3.77;;;3.22;;
17702;SDS011;8970;48.104;-1.680;2022-07-22T01:58:17;6.08;;;3.62;;
17702;SDS011;8970;48.104;-1.680;2022-07-22T01:58:54;7.67;;;3.47;;
17702;SDS011;8970;48.104;-1.680;2022-07-22T01:59:30;4.87;;;3.08;;
17702;SDS011;8970;48.104;-1.680;2022-07-22T02:00:08;6.55;;;3.30;;
17702;SDS011;8970;48.104;-1.680;2022-07-22T02:00:46;6.80;;;4.17;;
17702;SDS011;8970;48.104;-1.680;2022-07-22T02:02:05;5.53;;;3.72;;
17702;SDS011;8970;48.104;-1.680;2022-07-22T02:02:44;5.28;;;3.47;;
17702;SDS011;8970;48.104;-1.680;2022-07-22T02:03:21;9.25;;;4.20;;
17702;SDS011;8970;48.104;-1.680;2022-07-22T02:03:57;6.78;;;3.77;;
17702;SDS011;8970;48.104;-1.680;2022-07-22T02:04:40;7.25;;;3.77;;
17702;SDS011;8970;48.104;-1.680;2022-07-22T02:05:16;5.72;;;3.65;;
17702;SDS011;8970;48.104;-1.680;2022-07-22T02:05:53;5.42;;;3.37;;
17702;SDS011;8970;48.104;-1.680;2022-07-22T02:06:30;5.75;;;3.65;;
17702;SDS011;8970;48.104;-1.680;2022-07-22T02:07:06;5.03;;;3.25;;
17702;SDS011;8970;48.104;-1.680;2022-07-22T02:07:48;5.55;;;3.65;;
17702;SDS011;8970;48.104;-1.680;2022-07-22T02:08:25;4.25;;;3.80;;
17702;SDS011;8970;48.104;-1.680;2022-07-22T02:09:02;4.80;;;3.67;;
17702;SDS011;8970;48.104;-1.680;2022-07-22T02:09:39;4.55;;;3.45;;
17702;SDS011;8970;48.104;-1.680;2022-07-22T02:10:16;8.83;;;3.77;;
17702;SDS011;8970;48.104;-1.680;2022-07-22T02:10:52;5.12;;;3.77;;
17702;SDS011;8970;48.104;-1.680;2022-07-22T02:11:29;7.50;;;4.00;;
17702;SDS011;8970;48.104;-1.680;2022-07-22T02:12:06;6.83;;;3.90;;
17702;SDS011;8970;48.104;-1.680;2022-07-22T02:12:43;6.47;;;3.87;;
17702;SDS011;8970;48.104;-1.680;2022-07-22T02:13:20;5.37;;;3.55;;
17702;SDS011;8970;48.104;-1.680;2022-07-22T02:13:56;5.80;;;3.50;;
17702;SDS011;8970;48.104;-1.680;2022-07-22T02:14:39;5.40;;;4.05;;
17702;SDS011;8970;48.104;-1.680;2022-07-22T02:15:15;5.80;;;4.12;;
17702;SDS011;8970;48.104;-1.680;2022-07-22T02:15:52;5.33;;;4.17;;
17702;SDS011;8970;48.104;-1.680;2022-07-22T02:16:29;6.75;;;4.50;;
17702;SDS011;8970;48.104;-1.680;2022-07-22T02:17:05;8.10;;;3.83;;
17702;SDS011;8970;48.104;-1.680;2022-07-22T02:17:42;4.87;;;3.45;;
17702;SDS011;8970;48.104;-1.680;2022-07-22T02:18:19;4.45;;;3.52;;
17702;SDS011;8970;48.104;-1.680;2022-07-22T02:18:55;5.90;;;3.35;;
17702;SDS011;8970;48.104;-1.680;2022-07-22T02:19:32;7.25;;;4.30;;
17702;SDS011;8970;48.104;-1.680;2022-07-22T02:20:17;6.58;;;4.15;;
17702;SDS011;8970;48.104;-1.680;2022-07-22T02:20:53;7.10;;;3.72;;
17702;SDS011;8970;48.104;-1.680;2022-07-22T02:21:30;6.12;;;4.15;;
17702;SDS011;8970;48.104;-1.680;2022-07-22T02:22:07;7.08;;;4.40;;
17702;SDS011;8970;48.104;-1.680;2022-07-22T02:22:45;6.37;;;3.87;;
17702;SDS011;8970;48.104;-1.680;2022-07-22T02:23:27;7.92;;;4.20;;
17702;SDS011;8970;48.104;-1.680;2022-07-22T02:24:04;7.92;;;4.22;;
17702;SDS011;8970;48.104;-1.680;2022-07-22T02:24:41;6.10;;;4.25;;
17702;SDS011;8970;48.104;-1.680;2022-07-22T02:25:17;7.37;;;4.65;;
17702;SDS011;8970;48.104;-1.680;2022-07-22T02:25:54;6.58;;;4.30;;
17702;SDS011;8970;48.104;-1.680;2022-07-22T02:26:31;6.00;;;4.08;;
17702;SDS011;8970;48.104;-1.680;2022-07-22T02:27:08;7.10;;;4.87;;
17702;SDS011;8970;48.104;-1.680;2022-07-22T02:27:45;6.55;;;4.05;;
17702;SDS011;8970;48.104;-1.680;2022-07-22T02:28:21;5.55;;;4.08;;
17702;SDS011;8970;48.104;-1.680;2022-07-22T02:28:59;4.85;;;4.33;;
17702;SDS011;8970;48.104;-1.680;2022-07-22T02:29:35;5.55;;;4.37;;
17702;SDS011;8970;48.104;-1.680;2022-07-22T02:30:12;7.33;;;4.75;;
17702;SDS011;8970;48.104;-1.680;2022-07-22T02:31:30;8.13;;;4.05;;
17702;SDS011;8970;48.104;-1.680;2022-07-22T02:32:06;9.38;;;4.65;;
17702;SDS011;8970;48.104;-1.680;2022-07-22T02:32:43;7.25;;;4.78;;
17702;SDS011;8970;48.104;-1.680;2022-07-22T02:33:20;5.03;;;4.00;;
17702;SDS011;8970;48.104;-1.680;2022-07-22T02:33:56;7.08;;;4.80;;
17702;SDS011;8970;48.104;-1.680;2022-07-22T02:34:33;12.07;;;4.80;;
17702;SDS011;8970;48.104;-1.680;2022-07-22T02:35:22;7.83;;;4.03;;
17702;SDS011;8970;48.104;-1.680;2022-07-22T02:35:59;7.40;;;3.92;;
17702;SDS011;8970;48.104;-1.680;2022-07-22T02:36:36;7.37;;;4.78;;
17702;SDS011;8970;48.104;-1.680;2022-07-22T02:37:12;5.22;;;4.15;;
17702;SDS011;8970;48.104;-1.680;2022-07-22T02:37:54;6.67;;;4.40;;
17702;SDS011;8970;48.104;-1.680;2022-07-22T02:38:31;6.75;;;3.83;;
17702;SDS011;8970;48.104;-1.680;2022-07-22T02:39:08;5.67;;;3.90;;
17702;SDS011;8970;48.104;-1.680;2022-07-22T02:39:45;7.05;;;4.97;;
17702;SDS011;8970;48.104;-1.680;2022-07-22T02:40:28;6.70;;;4.33;;
17702;SDS011;8970;48.104;-1.680;2022-07-22T02:41:06;7.30;;;4.12;;
17702;SDS011;8970;48.104;-1.680;2022-07-22T02:41:43;7.40;;;4.42;;
17702;SDS011;8970;48.104;-1.680;2022-07-22T02:42:19;7.85;;;4.97;;
17702;SDS011;8970;48.104;-1.680;2022-07-22T02:42:57;6.97;;;4.50;;
17702;SDS011;8970;48.104;-1.680;2022-07-22T02:43:34;7.42;;;4.85;;
17702;SDS011;8970;48.104;-1.680;2022-07-22T02:44:10;7.62;;;5.17;;
17702;SDS011;8970;48.104;-1.680;2022-07-22T02:44:47;7.62;;;4.85;;
17702;SDS011;8970;48.104;-1.680;2022-07-22T02:45:23;7.47;;;4.95;;
17702;SDS011;8970;48.104;-1.680;2022-07-22T02:46:41;7.25;;;4.22;;
17702;SDS011;8970;48.104;-1.680;2022-07-22T02:47:18;5.05;;;4.25;;
17702;SDS011;8970;48.104;-1.680;2022-07-22T02:47:55;9.75;;;4.87;;
17702;SDS011;8970;48.104;-1.680;2022-07-22T02:49:14;7.42;;;5.17;;
17702;SDS011;8970;48.104;-1.680;2022-07-22T02:49:50;6.92;;;4.72;;
17702;SDS011;8970;48.104;-1.680;2022-07-22T02:50:27;6.40;;;4.15;;
17702;SDS011;8970;48.104;-1.680;2022-07-22T02:51:04;9.13;;;4.42;;
17702;SDS011;8970;48.104;-1.680;2022-07-22T02:51:40;6.40;;;4.42;;
17702;SDS011;8970;48.104;-1.680;2022-07-22T02:52:17;6.45;;;4.37;;
17702;SDS011;8970;48.104;-1.680;2022-07-22T02:52:54;7.25;;;4.67;;
17702;SDS011;8970;48.104;-1.680;2022-07-22T02:53:30;6.10;;;4.67;;
17702;SDS011;8970;48.104;-1.680;2022-07-22T02:54:07;6.60;;;4.47;;
17702;SDS011;8970;48.104;-1.680;2022-07-22T02:54:45;6.55;;;4.60;;
17702;SDS011;8970;48.104;-1.680;2022-07-22T02:55:22;6.90;;;4.12;;
17702;SDS011;8970;48.104;-1.680;2022-07-22T02:55:59;5.33;;;4.47;;
17702;SDS011;8970;48.104;-1.680;2022-07-22T02:56:36;6.30;;;4.42;;
17702;SDS011;8970;48.104;-1.680;2022-07-22T02:57:12;8.85;;;5.17;;
17702;SDS011;8970;48.104;-1.680;2022-07-22T02:57:50;5.03;;;4.45;;
17702;SDS011;8970;48.104;-1.680;2022-07-22T02:58:27;8.85;;;4.67;;
17702;SDS011;8970;48.104;-1.680;2022-07-22T02:59:05;6.17;;;4.42;;
17702;SDS011;8970;48.104;-1.680;2022-07-22T02:59:42;8.30;;;4.95;;
17702;SDS011;8970;48.104;-1.680;2022-07-22T03:00:19;6.83;;;4.15;;
17702;SDS011;8970;48.104;-1.680;2022-07-22T03:00:57;6.53;;;4.20;;
17702;SDS011;8970;48.104;-1.680;2022-07-22T03:01:33;5.67;;;4.22;;
17702;SDS011;8970;48.104;-1.680;2022-07-22T03:02:11;8.20;;;4.10;;
17702;SDS011;8970;48.104;-1.680;2022-07-22T03:02:49;7.08;;;4.25;;
17702;SDS011;8970;48.104;-1.680;2022-07-22T03:03:25;7.28;;;4.15;;
17702;SDS011;8970;48.104;-1.680;2022-07-22T03:04:03;9.93;;;4.28;;
17702;SDS011;8970;48.104;-1.680;2022-07-22T03:04:47;7.12;;;4.55;;
17702;SDS011;8970;48.104;-1.680;2022-07-22T03:05:24;8.75;;;5.42;;
17702;SDS011;8970;48.104;-1.680;2022-07-22T03:06:01;7.42;;;5.83;;
17702;SDS011;8970;48.104;-1.680;2022-07-22T03:06:37;6.72;;;5.25;;
17702;SDS011;8970;48.104;-1.680;2022-07-22T03:07:14;7.58;;;5.10;;
17702;SDS011;8970;48.104;-1.680;2022-07-22T03:07:51;8.53;;;5.08;;
17702;SDS011;8970;48.104;-1.680;2022-07-22T03:08:27;6.72;;;4.17;;
17702;SDS011;8970;48.104;-1.680;2022-07-22T03:09:04;10.13;;;4.72;;
17702;SDS011;8970;48.104;-1.680;2022-07-22T03:09:40;7.00;;;5.10;;
17702;SDS011;8970;48.104;-1.680;2022-07-22T03:10:23;8.65;;;4.95;;
17702;SDS011;8970;48.104;-1.680;2022-07-22T03:11:00;6.30;;;4.67;;
17702;SDS011;8970;48.104;-1.680;2022-07-22T03:11:37;5.75;;;3.95;;
17702;SDS011;8970;48.104;-1.680;2022-07-22T03:12:13;5.85;;;4.65;;
17702;SDS011;8970;48.104;-1.680;2022-07-22T03:12:56;5.87;;;4.83;;
17702;SDS011;8970;48.104;-1.680;2022-07-22T03:13:32;6.83;;;4.67;;
17702;SDS011;8970;48.104;-1.680;2022-07-22T03:14:09;7.58;;;4.55;;
17702;SDS011;8970;48.104;-1.680;2022-07-22T03:14:46;9.30;;;5.08;;
17702;SDS011;8970;48.104;-1.680;2022-07-22T03:15:29;6.92;;;4.92;;
17702;SDS011;8970;48.104;-1.680;2022-07-22T03:16:05;7.42;;;4.90;;
17702;SDS011;8970;48.104;-1.680;2022-07-22T03:16:42;8.55;;;5.12;;
17702;SDS011;8970;48.104;-1.680;2022-07-22T03:17:19;9.13;;;5.12;;
17702;SDS011;8970;48.104;-1.680;2022-07-22T03:17:55;8.78;;;4.90;;
17702;SDS011;8970;48.104;-1.680;2022-07-22T03:18:34;6.45;;;4.85;;
17702;SDS011;8970;48.104;-1.680;2022-07-22T03:19:11;6.67;;;4.90;;
17702;SDS011;8970;48.104;-1.680;2022-07-22T03:19:47;5.67;;;4.97;;
17702;SDS011;8970;48.104;-1.680;2022-07-22T03:20:24;6.78;;;5.05;;
17702;SDS011;8970;48.104;-1.680;2022-07-22T03:21:00;7.70;;;5.08;;
17702;SDS011;8970;48.104;-1.680;2022-07-22T03:21:43;6.67;;;4.95;;
17702;SDS011;8970;48.104;-1.680;2022-07-22T03:22:19;6.80;;;4.67;;
17702;SDS011;8970;48.104;-1.680;2022-07-22T03:22:56;6.55;;;4.45;;
17702;SDS011;8970;48.104;-1.680;2022-07-22T03:23:33;5.80;;;4.70;;
17702;SDS011;8970;48.104;-1.680;2022-07-22T03:24:09;6.97;;;5.03;;
17702;SDS011;8970;48.104;-1.680;2022-07-22T03:24:46;7.10;;;5.12;;
17702;SDS011;8970;48.104;-1.680;2022-07-22T03:25:22;7.10;;;5.58;;
17702;SDS011;8970;48.104;-1.680;2022-07-22T03:25:59;8.13;;;4.67;;
17702;SDS011;8970;48.104;-1.680;2022-07-22T03:26:36;9.03;;;5.12;;
17702;SDS011;8970;48.104;-1.680;2022-07-22T03:27:18;7.28;;;5.00;;
17702;SDS011;8970;48.104;-1.680;2022-07-22T03:27:55;6.83;;;5.15;;
17702;SDS011;8970;48.104;-1.680;2022-07-22T03:28:31;6.67;;;5.10;;
17702;SDS011;8970;48.104;-1.680;2022-07-22T03:29:08;7.03;;;5.30;;
17702;SDS011;8970;48.104;-1.680;2022-07-22T03:29:45;7.55;;;5.35;;
17702;SDS011;8970;48.104;-1.680;2022-07-22T03:30:27;8.15;;;5.25;;
17702;SDS011;8970;48.104;-1.680;2022-07-22T03:31:04;7.65;;;5.15;;
17702;SDS011;8970;48.104;-1.680;2022-07-22T03:31:41;8.13;;;4.75;;
17702;SDS011;8970;48.104;-1.680;2022-07-22T03:32:59;7.53;;;5.30;;
17702;SDS011;8970;48.104;-1.680;2022-07-22T03:33:35;6.58;;;5.60;;
17702;SDS011;8970;48.104;-1.680;2022-07-22T03:34:12;7.62;;;5.22;;
17702;SDS011;8970;48.104;-1.680;2022-07-22T03:34:49;7.37;;;5.50;;
17702;SDS011;8970;48.104;-1.680;2022-07-22T03:35:26;8.28;;;5.15;;
17702;SDS011;8970;48.104;-1.680;2022-07-22T03:36:04;9.13;;;5.50;;
17702;SDS011;8970;48.104;-1.680;2022-07-22T03:36:42;7.40;;;5.58;;
17702;SDS011;8970;48.104;-1.680;2022-07-22T03:37:18;6.05;;;4.83;;
17702;SDS011;8970;48.104;-1.680;2022-07-22T03:37:55;8.00;;;5.33;;
17702;SDS011;8970;48.104;-1.680;2022-07-22T03:38:32;7.37;;;5.37;;
17702;SDS011;8970;48.104;-1.680;2022-07-22T03:39:10;7.28;;;5.72;;
17702;SDS011;8970;48.104;-1.680;2022-07-22T03:39:47;7.97;;;5.83;;
17702;SDS011;8970;48.104;-1.680;2022-07-22T03:40:23;8.78;;;5.83;;
17702;SDS011;8970;48.104;-1.680;2022-07-22T03:41:00;8.43;;;6.17;;
17702;SDS011;8970;48.104;-1.680;2022-07-22T03:41:36;8.13;;;5.78;;
17702;SDS011;8970;48.104;-1.680;2022-07-22T03:42:13;7.50;;;5.45;;
17702;SDS011;8970;48.104;-1.680;2022-07-22T03:42:59;7.17;;;6.00;;
17702;SDS011;8970;48.104;-1.680;2022-07-22T03:43:35;8.63;;;5.92;;
17702;SDS011;8970;48.104;-1.680;2022-07-22T03:44:12;7.30;;;5.97;;
17702;SDS011;8970;48.104;-1.680;2022-07-22T03:44:48;10.38;;;5.75;;
17702;SDS011;8970;48.104;-1.680;2022-07-22T03:45:25;7.10;;;5.67;;
17702;SDS011;8970;48.104;-1.680;2022-07-22T03:46:43;8.68;;;5.95;;
17702;SDS011;8970;48.104;-1.680;2022-07-22T03:47:20;6.83;;;5.75;;
17702;SDS011;8970;48.104;-1.680;2022-07-22T03:47:58;9.25;;;6.20;;
17702;SDS011;8970;48.104;-1.680;2022-07-22T03:49:15;9.23;;;6.22;;
17702;SDS011;8970;48.104;-1.680;2022-07-22T03:49:52;7.83;;;5.90;;
17702;SDS011;8970;48.104;-1.680;2022-07-22T03:50:29;7.95;;;6.12;;
17702;SDS011;8970;48.104;-1.680;2022-07-22T03:51:06;6.80;;;5.37;;
17702;SDS011;8970;48.104;-1.680;2022-07-22T03:51:49;5.97;;;4.83;;
17702;SDS011;8970;48.104;-1.680;2022-07-22T03:52:25;10.03;;;5.67;;
17702;SDS011;8970;48.104;-1.680;2022-07-22T03:53:02;7.60;;;5.87;;
17702;SDS011;8970;48.104;-1.680;2022-07-22T03:53:39;10.82;;;6.58;;
17702;SDS011;8970;48.104;-1.680;2022-07-22T03:54:16;7.28;;;6.00;;
17702;SDS011;8970;48.104;-1.680;2022-07-22T03:54:53;8.40;;;6.50;;
17702;SDS011;8970;48.104;-1.680;2022-07-22T03:55:29;9.60;;;6.80;;
17702;SDS011;8970;48.104;-1.680;2022-07-22T03:56:07;8.93;;;5.80;;
17702;SDS011;8970;48.104;-1.680;2022-07-22T03:56:43;7.58;;;5.87;;
17702;SDS011;8970;48.104;-1.680;2022-07-22T03:57:20;9.53;;;6.30;;
17702;SDS011;8970;48.104;-1.680;2022-07-22T03:58:02;7.65;;;5.90;;